createdAt,value
2022-10-31T00:00:01.922Z,100
2022-10-31T00:01:01.854Z,100
2022-10-31T00:02:02.385Z,100
2022-10-31T00:03:03.269Z,100
2022-10-31T00:04:02.398Z,100
2022-10-31T00:05:02.446Z,100
2022-10-31T00:06:02.283Z,100
2022-10-31T00:07:02.370Z,100
2022-10-31T00:08:02.148Z,100
2022-10-31T00:09:02.066Z,100
2022-10-31T00:10:02.104Z,100
2022-10-31T00:11:01.948Z,100
2022-10-31T00:12:01.980Z,100
2022-10-31T00:13:02.513Z,100
2022-10-31T00:14:01.713Z,100
2022-10-31T00:15:01.692Z,100
2022-10-31T00:16:02.529Z,100
2022-10-31T00:17:02.370Z,100
2022-10-31T00:18:02.925Z,100
2022-10-31T00:19:01.741Z,100
2022-10-31T00:20:02.564Z,100
2022-10-31T00:21:02.401Z,100
2022-10-31T00:22:02.457Z,100
2022-10-31T00:23:02.306Z,100
2022-10-31T00:24:02.347Z,100
2022-10-31T00:25:02.282Z,100
2022-10-31T00:26:02.136Z,100
2022-10-31T00:27:02.167Z,100
2022-10-31T00:28:02.838Z,100
2022-10-31T00:29:02.065Z,100
2022-10-31T00:30:02.008Z,100
2022-10-31T00:31:01.856Z,100
2022-10-31T00:32:01.859Z,100
2022-10-31T00:33:02.529Z,100
2022-10-31T00:34:01.889Z,100
2022-10-31T00:35:02.009Z,100
2022-10-31T00:36:01.952Z,100
2022-10-31T00:37:01.898Z,100
2022-10-31T00:38:01.945Z,100
2022-10-31T00:39:01.889Z,100
2022-10-31T00:40:01.917Z,100
2022-10-31T00:41:01.733Z,100
2022-10-31T00:42:01.750Z,100
2022-10-31T00:43:02.878Z,100
2022-10-31T00:44:01.625Z,100
2022-10-31T00:45:01.663Z,100
2022-10-31T00:46:02.317Z,100
2022-10-31T00:47:02.163Z,100
2022-10-31T00:48:03.017Z,100
2022-10-31T00:49:02.112Z,100
2022-10-31T00:50:02.072Z,100
2022-10-31T00:51:02.105Z,100
2022-10-31T00:52:01.898Z,100
2022-10-31T00:53:01.853Z,100
2022-10-31T00:54:01.664Z,100
2022-10-31T00:55:01.710Z,100
2022-10-31T00:56:02.638Z,100
2022-10-31T00:57:02.516Z,100
2022-10-31T00:58:03.549Z,100
2022-10-31T00:59:02.264Z,100
2022-10-31T01:00:02.317Z,100
2022-10-31T01:01:02.149Z,100
2022-10-31T01:02:02.383Z,100
2022-10-31T01:03:03.410Z,100
2022-10-31T01:04:02.293Z,100
2022-10-31T01:05:02.306Z,100
2022-10-31T01:06:02.300Z,100
2022-10-31T01:07:02.069Z,100
2022-10-31T01:08:02.077Z,100
2022-10-31T01:09:01.982Z,100
2022-10-31T01:10:01.889Z,100
2022-10-31T01:11:01.936Z,100
2022-10-31T01:12:01.783Z,100
2022-10-31T01:13:02.349Z,100
2022-10-31T01:14:01.573Z,100
2022-10-31T01:15:02.635Z,100
2022-10-31T01:16:02.501Z,100
2022-10-31T01:17:02.562Z,100
2022-10-31T01:18:03.004Z,100
2022-10-31T01:19:02.948Z,100
2022-10-31T01:20:01.828Z,100
2022-10-31T01:21:01.732Z,100
2022-10-31T01:22:01.712Z,100
2022-10-31T01:23:01.569Z,100
2022-10-31T01:24:02.633Z,100
2022-10-31T01:25:02.522Z,100
2022-10-31T01:26:02.550Z,100
2022-10-31T01:27:02.394Z,100
2022-10-31T01:28:03.048Z,100
2022-10-31T01:29:01.889Z,100
2022-10-31T01:30:01.924Z,100
2022-10-31T01:31:01.789Z,100
2022-10-31T01:32:01.808Z,100
2022-10-31T01:33:02.172Z,100
2022-10-31T01:34:02.486Z,100
2022-10-31T01:35:02.546Z,100
2022-10-31T01:36:02.378Z,100
2022-10-31T01:37:02.463Z,100
2022-10-31T01:38:02.286Z,100
2022-10-31T01:39:02.341Z,100
2022-10-31T01:40:02.270Z,100
2022-10-31T01:41:02.130Z,100
2022-10-31T01:42:02.165Z,100
2022-10-31T01:43:02.829Z,100
2022-10-31T01:44:01.784Z,100
2022-10-31T01:45:01.816Z,100
2022-10-31T01:46:01.626Z,100
2022-10-31T01:47:01.676Z,100
2022-10-31T01:48:03.119Z,100
2022-10-31T01:49:01.953Z,100
2022-10-31T01:50:01.958Z,100
2022-10-31T01:51:01.787Z,100
2022-10-31T01:52:01.785Z,100
2022-10-31T01:53:01.625Z,100
2022-10-31T01:54:01.671Z,100
2022-10-31T01:55:02.584Z,100
2022-10-31T01:56:02.502Z,100
2022-10-31T01:57:02.553Z,100
2022-10-31T01:58:03.502Z,100
2022-10-31T01:59:01.997Z,100
2022-10-31T02:00:01.911Z,100
2022-10-31T02:01:07.979Z,100
2022-10-31T02:02:02.551Z,100
2022-10-31T02:03:02.568Z,100
2022-10-31T02:04:02.399Z,100
2022-10-31T02:05:02.299Z,100
2022-10-31T02:06:02.305Z,100
2022-10-31T02:07:02.130Z,100
2022-10-31T02:08:02.024Z,100
2022-10-31T02:09:02.063Z,100
2022-10-31T02:10:01.925Z,100
2022-10-31T02:11:01.944Z,100
2022-10-31T02:12:01.735Z,100
2022-10-31T02:13:02.732Z,100
2022-10-31T02:14:02.328Z,100
2022-10-31T02:15:02.195Z,100
2022-10-31T02:16:02.149Z,100
2022-10-31T02:17:02.167Z,100
2022-10-31T02:18:03.040Z,100
2022-10-31T02:19:02.381Z,100
2022-10-31T02:20:02.438Z,100
2022-10-31T02:21:02.255Z,100
2022-10-31T02:22:02.315Z,100
2022-10-31T02:23:02.138Z,100
2022-10-31T02:24:02.050Z,100
2022-10-31T02:25:02.065Z,100
2022-10-31T02:26:01.938Z,100
2022-10-31T02:27:01.994Z,100
2022-10-31T02:28:03.067Z,100
2022-10-31T02:29:02.448Z,100
2022-10-31T02:30:02.409Z,100
2022-10-31T02:31:02.183Z,100
2022-10-31T02:32:02.235Z,100
2022-10-31T02:33:02.967Z,100
2022-10-31T02:34:02.503Z,100
2022-10-31T02:35:02.541Z,100
2022-10-31T02:36:02.367Z,100
2022-10-31T02:37:02.352Z,100
2022-10-31T02:38:02.310Z,100
2022-10-31T02:39:02.193Z,100
2022-10-31T02:40:02.212Z,100
2022-10-31T02:41:02.002Z,100
2022-10-31T02:42:01.954Z,100
2022-10-31T02:43:02.886Z,100
2022-10-31T02:44:01.961Z,100
2022-10-31T02:45:01.895Z,100
2022-10-31T02:46:01.646Z,100
2022-10-31T02:47:01.641Z,100
2022-10-31T02:48:03.084Z,100
2022-10-31T02:49:02.080Z,100
2022-10-31T02:50:01.968Z,100
2022-10-31T02:51:01.886Z,100
2022-10-31T02:52:01.898Z,100
2022-10-31T02:53:01.700Z,100
2022-10-31T02:54:01.696Z,100
2022-10-31T02:55:01.671Z,100
2022-10-31T02:56:02.631Z,100
2022-10-31T02:57:02.465Z,100
2022-10-31T02:58:03.399Z,100
2022-10-31T02:59:02.153Z,100
2022-10-31T03:00:02.228Z,100
2022-10-31T03:01:01.776Z,100
2022-10-31T03:02:02.276Z,100
2022-10-31T03:03:03.500Z,100
2022-10-31T03:04:01.652Z,100
2022-10-31T03:05:01.649Z,100
2022-10-31T03:06:02.554Z,100
2022-10-31T03:07:02.424Z,100
2022-10-31T03:08:02.460Z,100
2022-10-31T03:09:02.308Z,100
2022-10-31T03:10:02.368Z,100
2022-10-31T03:11:02.314Z,100
2022-10-31T03:12:02.182Z,100
2022-10-31T03:13:02.875Z,100
2022-10-31T03:14:02.118Z,100
2022-10-31T03:15:02.041Z,100
2022-10-31T03:16:01.950Z,100
2022-10-31T03:17:01.972Z,100
2022-10-31T03:18:02.935Z,100
2022-10-31T03:19:02.341Z,100
2022-10-31T03:20:02.393Z,100
2022-10-31T03:21:02.314Z,100
2022-10-31T03:22:02.158Z,100
2022-10-31T03:23:02.192Z,100
2022-10-31T03:24:02.018Z,100
2022-10-31T03:25:01.929Z,100
2022-10-31T03:26:01.956Z,100
2022-10-31T03:27:01.777Z,100
2022-10-31T03:28:02.911Z,100
2022-10-31T03:29:02.001Z,100
2022-10-31T03:30:01.962Z,100
2022-10-31T03:31:07.401Z,100
2022-10-31T03:32:02.550Z,100
2022-10-31T03:33:03.052Z,100
2022-10-31T03:34:01.578Z,100
2022-10-31T03:35:03.014Z,100
2022-10-31T03:36:01.808Z,100
2022-10-31T03:37:01.788Z,100
2022-10-31T03:38:08.123Z,100
2022-10-31T03:39:01.986Z,100
2022-10-31T03:40:02.050Z,100
2022-10-31T03:41:01.849Z,100
2022-10-31T03:42:01.891Z,100
2022-10-31T03:43:02.662Z,100
2022-10-31T03:44:02.139Z,100
2022-10-31T03:45:02.052Z,100
2022-10-31T03:46:01.922Z,100
2022-10-31T03:47:01.953Z,100
2022-10-31T03:48:02.993Z,100
2022-10-31T03:49:02.462Z,100
2022-10-31T03:50:02.543Z,100
2022-10-31T03:51:02.358Z,100
2022-10-31T03:52:02.407Z,100
2022-10-31T03:53:02.358Z,100
2022-10-31T03:54:02.171Z,100
2022-10-31T03:55:02.339Z,100
2022-10-31T03:56:02.268Z,100
2022-10-31T03:57:02.132Z,100
2022-10-31T03:58:03.335Z,100
2022-10-31T03:59:02.122Z,100
2022-10-31T04:00:02.066Z,100
2022-10-31T04:01:02.226Z,100
2022-10-31T04:02:02.383Z,100
2022-10-31T04:03:03.224Z,100
2022-10-31T04:04:02.377Z,100
2022-10-31T04:05:02.419Z,100
2022-10-31T04:06:02.282Z,100
2022-10-31T04:07:02.446Z,100
2022-10-31T04:08:02.266Z,100
2022-10-31T04:09:02.278Z,100
2022-10-31T04:10:02.103Z,100
2022-10-31T04:11:02.016Z,100
2022-10-31T04:12:01.913Z,100
2022-10-31T04:13:02.740Z,100
2022-10-31T04:14:02.137Z,100
2022-10-31T04:15:02.204Z,100
2022-10-31T04:16:01.720Z,100
2022-10-31T04:17:01.717Z,100
2022-10-31T04:18:02.257Z,100
2022-10-31T04:19:01.850Z,100
2022-10-31T04:20:01.881Z,100
2022-10-31T04:21:01.738Z,100
2022-10-31T04:22:01.756Z,100
2022-10-31T04:23:01.622Z,100
2022-10-31T04:24:02.632Z,100
2022-10-31T04:25:02.462Z,100
2022-10-31T04:26:02.518Z,100
2022-10-31T04:27:02.340Z,100
2022-10-31T04:28:03.592Z,100
2022-10-31T04:29:02.353Z,100
2022-10-31T04:30:02.250Z,100
2022-10-31T04:31:02.047Z,100
2022-10-31T04:32:02.082Z,100
2022-10-31T04:33:02.868Z,100
2022-10-31T04:34:02.422Z,100
2022-10-31T04:35:02.447Z,100
2022-10-31T04:36:02.295Z,100
2022-10-31T04:37:02.328Z,100
2022-10-31T04:38:02.140Z,100
2022-10-31T04:39:02.188Z,100
2022-10-31T04:40:02.054Z,100
2022-10-31T04:41:01.868Z,100
2022-10-31T04:42:01.869Z,100
2022-10-31T04:43:02.554Z,100
2022-10-31T04:44:02.380Z,100
2022-10-31T04:45:02.225Z,100
2022-10-31T04:46:02.080Z,100
2022-10-31T04:47:01.979Z,100
2022-10-31T04:48:02.734Z,100
2022-10-31T04:49:02.445Z,100
2022-10-31T04:50:02.311Z,100
2022-10-31T04:51:02.327Z,100
2022-10-31T04:52:02.284Z,100
2022-10-31T04:53:02.097Z,100
2022-10-31T04:54:02.135Z,100
2022-10-31T04:55:01.973Z,100
2022-10-31T04:56:01.865Z,100
2022-10-31T04:57:01.896Z,100
2022-10-31T04:58:02.722Z,100
2022-10-31T04:59:02.472Z,100
2022-10-31T05:00:02.569Z,100
2022-10-31T05:01:02.217Z,100
2022-10-31T05:02:02.551Z,100
2022-10-31T05:03:02.568Z,100
2022-10-31T05:04:02.064Z,100
2022-10-31T05:05:02.028Z,100
2022-10-31T05:06:02.017Z,100
2022-10-31T05:07:01.851Z,100
2022-10-31T05:08:01.867Z,100
2022-10-31T05:09:01.662Z,100
2022-10-31T05:10:01.670Z,100
2022-10-31T05:11:05.028Z,100
2022-10-31T05:12:01.845Z,100
2022-10-31T05:13:02.923Z,100
2022-10-31T05:14:01.811Z,100
2022-10-31T05:15:01.805Z,100
2022-10-31T05:16:02.591Z,100
2022-10-31T05:17:02.541Z,100
2022-10-31T05:18:03.211Z,100
2022-10-31T05:19:01.668Z,100
2022-10-31T05:20:01.703Z,100
2022-10-31T05:21:02.637Z,100
2022-10-31T05:22:02.488Z,100
2022-10-31T05:23:02.531Z,100
2022-10-31T05:24:02.369Z,100
2022-10-31T05:25:02.374Z,100
2022-10-31T05:26:02.224Z,100
2022-10-31T05:27:02.259Z,100
2022-10-31T05:28:02.985Z,100
2022-10-31T05:29:02.534Z,100
2022-10-31T05:30:02.636Z,100
2022-10-31T05:31:02.295Z,100
2022-10-31T05:32:02.308Z,100
2022-10-31T05:33:02.992Z,100
2022-10-31T05:34:02.478Z,100
2022-10-31T05:35:02.365Z,100
2022-10-31T05:36:02.381Z,100
2022-10-31T05:37:02.220Z,100
2022-10-31T05:38:02.259Z,100
2022-10-31T05:39:02.118Z,100
2022-10-31T05:40:08.564Z,100
2022-10-31T05:41:02.537Z,100
2022-10-31T05:42:02.601Z,100
2022-10-31T05:43:03.283Z,100
2022-10-31T05:44:01.660Z,100
2022-10-31T05:45:01.735Z,100
2022-10-31T05:46:02.387Z,100
2022-10-31T05:47:02.248Z,100
2022-10-31T05:48:02.998Z,100
2022-10-31T05:49:03.362Z,100
2022-10-31T05:50:02.180Z,100
2022-10-31T05:51:02.312Z,100
2022-10-31T05:52:02.120Z,100
2022-10-31T05:53:02.093Z,100
2022-10-31T05:54:02.100Z,100
2022-10-31T05:55:01.921Z,100
2022-10-31T05:56:01.972Z,100
2022-10-31T05:57:01.776Z,100
2022-10-31T05:58:02.634Z,100
2022-10-31T05:59:02.034Z,100
2022-10-31T06:00:02.009Z,100
2022-10-31T06:01:01.924Z,100
2022-10-31T06:02:01.947Z,100
2022-10-31T06:03:02.090Z,100
2022-10-31T06:04:02.147Z,100
2022-10-31T06:05:02.341Z,100
2022-10-31T06:06:02.398Z,100
2022-10-31T06:07:02.291Z,100
2022-10-31T06:08:03.147Z,100
2022-10-31T06:09:01.879Z,100
2022-10-31T06:10:01.864Z,100
2022-10-31T06:11:01.683Z,100
2022-10-31T06:12:01.713Z,100
2022-10-31T06:13:02.347Z,100
2022-10-31T06:14:02.152Z,100
2022-10-31T06:15:02.188Z,100
2022-10-31T06:16:01.801Z,100
2022-10-31T06:17:01.799Z,100
2022-10-31T06:18:02.652Z,100
2022-10-31T06:19:01.645Z,100
2022-10-31T06:20:01.684Z,100
2022-10-31T06:21:01.746Z,100
2022-10-31T06:22:01.723Z,100
2022-10-31T06:23:02.892Z,100
2022-10-31T06:24:02.546Z,100
2022-10-31T06:25:02.555Z,100
2022-10-31T06:26:02.395Z,100
2022-10-31T06:27:02.409Z,100
2022-10-31T06:28:02.270Z,100
2022-10-31T06:29:04.450Z,100
2022-10-31T06:30:02.372Z,100
2022-10-31T06:31:01.984Z,100
2022-10-31T06:32:02.004Z,100
2022-10-31T06:33:02.760Z,100
2022-10-31T06:34:02.073Z,100
2022-10-31T06:35:02.053Z,100
2022-10-31T06:36:01.889Z,100
2022-10-31T06:37:01.862Z,100
2022-10-31T06:38:02.557Z,100
2022-10-31T06:39:02.131Z,100
2022-10-31T06:40:02.175Z,100
2022-10-31T06:41:02.000Z,100
2022-10-31T06:42:01.945Z,100
2022-10-31T06:43:01.968Z,100
2022-10-31T06:44:08.870Z,100
2022-10-31T06:45:01.889Z,100
2022-10-31T06:46:01.696Z,100
2022-10-31T06:47:01.746Z,100
2022-10-31T06:48:18.143Z,100
2022-10-31T06:49:02.455Z,100
2022-10-31T06:50:02.473Z,100
2022-10-31T06:51:02.413Z,100
2022-10-31T06:52:02.301Z,100
2022-10-31T06:53:02.391Z,100
2022-10-31T06:54:02.316Z,100
2022-10-31T06:55:02.333Z,100
2022-10-31T06:56:02.295Z,100
2022-10-31T06:57:02.105Z,100
2022-10-31T06:58:03.694Z,100
2022-10-31T06:59:01.973Z,100
2022-10-31T07:00:01.928Z,100
2022-10-31T07:01:01.850Z,100
2022-10-31T07:02:02.263Z,100
2022-10-31T07:03:02.440Z,100
2022-10-31T07:04:02.285Z,100
2022-10-31T07:05:02.316Z,100
2022-10-31T07:06:02.281Z,100
2022-10-31T07:07:02.265Z,100
2022-10-31T07:08:02.970Z,100
2022-10-31T07:09:02.281Z,100
2022-10-31T07:10:02.300Z,100
2022-10-31T07:11:02.372Z,100
2022-10-31T07:12:02.269Z,100
2022-10-31T07:13:02.815Z,100
2022-10-31T07:14:01.984Z,100
2022-10-31T07:15:01.978Z,100
2022-10-31T07:16:02.031Z,100
2022-10-31T07:17:01.979Z,100
2022-10-31T07:18:02.006Z,100
2022-10-31T07:19:01.836Z,100
2022-10-31T07:20:01.887Z,100
2022-10-31T07:21:01.669Z,100
2022-10-31T07:22:01.710Z,100
2022-10-31T07:23:03.307Z,100
2022-10-31T07:24:01.590Z,100
2022-10-31T07:25:02.627Z,100
2022-10-31T07:26:02.458Z,100
2022-10-31T07:27:02.510Z,100
2022-10-31T07:28:02.955Z,100
2022-10-31T07:29:01.696Z,100
2022-10-31T07:30:01.726Z,100
2022-10-31T07:31:01.650Z,100
2022-10-31T07:32:01.675Z,100
2022-10-31T07:33:01.582Z,100
2022-10-31T07:34:02.629Z,100
2022-10-31T07:35:02.486Z,100
2022-10-31T07:36:02.518Z,100
2022-10-31T07:37:02.371Z,100
2022-10-31T07:38:03.167Z,100
2022-10-31T07:39:02.306Z,100
2022-10-31T07:40:02.403Z,100
2022-10-31T07:41:02.296Z,100
2022-10-31T07:42:02.112Z,100
2022-10-31T07:43:02.149Z,100
2022-10-31T07:44:01.935Z,100
2022-10-31T07:45:01.878Z,100
2022-10-31T07:46:01.955Z,100
2022-10-31T07:47:02.029Z,100
2022-10-31T07:48:02.671Z,100
2022-10-31T07:49:01.987Z,100
2022-10-31T07:50:02.049Z,100
2022-10-31T07:51:02.103Z,100
2022-10-31T07:52:01.918Z,100
2022-10-31T07:53:01.917Z,100
2022-10-31T07:54:01.803Z,100
2022-10-31T07:55:01.834Z,100
2022-10-31T07:56:01.735Z,100
2022-10-31T07:57:01.686Z,100
2022-10-31T07:58:03.129Z,100
2022-10-31T07:59:01.575Z,100
2022-10-31T08:00:02.631Z,100
2022-10-31T08:01:02.630Z,100
2022-10-31T08:02:01.838Z,100
2022-10-31T08:03:02.561Z,100
2022-10-31T08:04:01.934Z,100
2022-10-31T08:05:01.989Z,100
2022-10-31T08:06:01.844Z,100
2022-10-31T08:07:01.744Z,100
2022-10-31T08:08:02.290Z,100
2022-10-31T08:09:02.235Z,100
2022-10-31T08:10:02.271Z,100
2022-10-31T08:11:02.090Z,100
2022-10-31T08:12:02.002Z,100
2022-10-31T08:13:02.042Z,100
2022-10-31T08:14:01.909Z,100
2022-10-31T08:15:01.957Z,100
2022-10-31T08:16:01.729Z,100
2022-10-31T08:17:01.666Z,100
2022-10-31T08:18:03.385Z,100
2022-10-31T08:19:02.499Z,100
2022-10-31T08:20:02.499Z,100
2022-10-31T08:21:02.326Z,100
2022-10-31T08:22:02.377Z,100
2022-10-31T08:23:02.155Z,100
2022-10-31T08:24:02.221Z,100
2022-10-31T08:25:02.243Z,100
2022-10-31T08:26:02.041Z,100
2022-10-31T08:27:01.897Z,100
2022-10-31T08:28:02.882Z,100
2022-10-31T08:29:02.384Z,100
2022-10-31T08:30:02.246Z,100
2022-10-31T08:31:02.168Z,100
2022-10-31T08:32:02.145Z,100
2022-10-31T08:33:01.958Z,100
2022-10-31T08:34:01.845Z,100
2022-10-31T08:35:01.861Z,100
2022-10-31T08:36:01.700Z,100
2022-10-31T08:37:01.676Z,100
2022-10-31T08:38:02.477Z,100
2022-10-31T08:39:02.532Z,100
2022-10-31T08:40:02.452Z,100
2022-10-31T08:41:02.357Z,100
2022-10-31T08:42:02.208Z,100
2022-10-31T08:43:02.074Z,100
2022-10-31T08:44:02.035Z,100
2022-10-31T08:45:02.080Z,100
2022-10-31T08:46:01.660Z,100
2022-10-31T08:47:01.701Z,99
2022-10-31T08:48:02.609Z,98
2022-10-31T08:49:02.397Z,100
2022-10-31T08:50:02.452Z,100
2022-10-31T08:51:02.266Z,100
2022-10-31T08:52:02.318Z,99
2022-10-31T08:53:06.061Z,98
2022-10-31T08:54:02.296Z,98
2022-10-31T08:55:02.362Z,96
2022-10-31T08:56:02.296Z,95
2022-10-31T08:57:02.128Z,95
2022-10-31T08:58:02.948Z,94
2022-10-31T08:59:01.598Z,96
2022-10-31T09:00:02.605Z,93
2022-10-31T09:01:02.663Z,92
2022-10-31T09:02:01.933Z,94
2022-10-31T09:03:01.899Z,94
2022-10-31T09:04:01.887Z,89
2022-10-31T09:05:01.731Z,94
2022-10-31T09:06:01.917Z,92
2022-10-31T09:07:21.588Z,92
2022-10-31T09:08:02.454Z,88
2022-10-31T09:09:02.159Z,88
2022-10-31T09:10:01.999Z,88
2022-10-31T09:11:01.948Z,86
2022-10-31T09:12:02.020Z,87
2022-10-31T09:13:01.880Z,85
2022-10-31T09:14:01.980Z,88
2022-10-31T09:15:01.850Z,87
2022-10-31T09:16:01.599Z,87
2022-10-31T09:17:02.653Z,87
2022-10-31T09:18:03.438Z,85
2022-10-31T09:19:03.549Z,84
2022-10-31T09:20:01.790Z,83
2022-10-31T09:21:01.755Z,85
2022-10-31T09:22:01.595Z,83
2022-10-31T09:23:01.689Z,82
2022-10-31T09:24:02.617Z,83
2022-10-31T09:25:02.444Z,84
2022-10-31T09:26:02.469Z,82
2022-10-31T09:27:02.342Z,82
2022-10-31T09:28:03.366Z,79
2022-10-31T09:29:01.833Z,79
2022-10-31T09:30:01.890Z,80
2022-10-31T09:31:02.586Z,80
2022-10-31T09:32:02.467Z,81
2022-10-31T09:33:02.473Z,83
2022-10-31T09:34:02.300Z,82
2022-10-31T09:35:02.476Z,79
2022-10-31T09:36:02.544Z,80
2022-10-31T09:37:02.418Z,80
2022-10-31T09:38:03.154Z,78
2022-10-31T09:39:02.348Z,80
2022-10-31T09:40:02.402Z,79
2022-10-31T09:41:02.319Z,79
2022-10-31T09:42:02.176Z,80
2022-10-31T09:43:02.236Z,78
2022-10-31T09:44:02.076Z,77
2022-10-31T09:45:01.997Z,80
2022-10-31T09:46:01.879Z,78
2022-10-31T09:47:01.921Z,79
2022-10-31T09:48:02.682Z,76
2022-10-31T09:49:02.231Z,76
2022-10-31T09:50:02.307Z,76
2022-10-31T09:51:02.085Z,76
2022-10-31T09:52:02.300Z,73
2022-10-31T09:53:03.233Z,74
2022-10-31T09:54:01.715Z,73
2022-10-31T09:55:01.751Z,73
2022-10-31T09:56:01.710Z,73
2022-10-31T09:57:01.646Z,75
2022-10-31T09:58:02.553Z,71
2022-10-31T09:59:02.385Z,71
2022-10-31T10:00:02.469Z,72
2022-10-31T10:01:02.522Z,72
2022-10-31T10:02:02.723Z,70
2022-10-31T10:03:02.353Z,68
2022-10-31T10:04:01.785Z,70
2022-10-31T10:05:01.594Z,70
2022-10-31T10:06:02.628Z,69
2022-10-31T10:07:02.446Z,68
2022-10-31T10:08:02.486Z,69
2022-10-31T10:09:02.350Z,70
2022-10-31T10:10:02.398Z,70
2022-10-31T10:11:02.329Z,69
2022-10-31T10:12:02.241Z,69
2022-10-31T10:13:06.591Z,68
2022-10-31T10:14:01.554Z,68
2022-10-31T10:15:02.616Z,68
2022-10-31T10:16:02.346Z,69
2022-10-31T10:17:02.402Z,68
2022-10-31T10:18:02.300Z,67
2022-10-31T10:19:02.149Z,68
2022-10-31T10:20:02.194Z,68
2022-10-31T10:21:02.039Z,68
2022-10-31T10:22:02.059Z,67
2022-10-31T10:23:02.678Z,67
2022-10-31T10:24:02.278Z,66
2022-10-31T10:25:02.099Z,66
2022-10-31T10:26:02.892Z,66
2022-10-31T10:27:01.553Z,66
2022-10-31T10:28:03.477Z,65
2022-10-31T10:29:01.818Z,64
2022-10-31T10:30:01.814Z,64
2022-10-31T10:31:02.544Z,63
2022-10-31T10:32:02.379Z,66
2022-10-31T10:33:02.416Z,65
2022-10-31T10:34:02.290Z,64
2022-10-31T10:35:02.288Z,64
2022-10-31T10:36:02.144Z,64
2022-10-31T10:37:02.041Z,62
2022-10-31T10:38:02.458Z,64
2022-10-31T10:39:01.610Z,62
2022-10-31T10:40:02.648Z,62
2022-10-31T10:41:02.476Z,62
2022-10-31T10:42:02.552Z,61
2022-10-31T10:43:02.387Z,61
2022-10-31T10:44:02.441Z,63
2022-10-31T10:45:02.296Z,62
2022-10-31T10:46:02.579Z,61
2022-10-31T10:47:02.531Z,60
2022-10-31T10:48:03.137Z,62
2022-10-31T10:49:02.511Z,60
2022-10-31T10:50:02.553Z,59
2022-10-31T10:51:02.405Z,61
2022-10-31T10:52:39.541Z,59
2022-10-31T10:53:02.168Z,60
2022-10-31T10:54:10.371Z,61
2022-10-31T10:55:02.621Z,61
2022-10-31T10:56:02.509Z,61
2022-10-31T10:57:02.518Z,62
2022-10-31T10:58:03.087Z,59
2022-10-31T10:59:01.568Z,61
2022-10-31T11:00:02.609Z,59
2022-10-31T11:01:02.496Z,60
2022-10-31T11:02:01.707Z,62
2022-10-31T11:03:03.483Z,59
2022-10-31T11:04:01.907Z,58
2022-10-31T11:05:01.929Z,59
2022-10-31T11:06:01.767Z,60
2022-10-31T11:07:01.761Z,62
2022-10-31T11:08:01.616Z,57
2022-10-31T11:09:02.641Z,59
2022-10-31T11:10:02.486Z,59
2022-10-31T11:11:01.863Z,59
2022-10-31T11:12:01.656Z,59
2022-10-31T11:13:02.754Z,59
2022-10-31T11:14:02.376Z,58
2022-10-31T11:15:02.256Z,59
2022-10-31T11:16:02.144Z,59
2022-10-31T11:17:02.168Z,60
2022-10-31T11:18:02.000Z,59
2022-10-31T11:19:01.972Z,59
2022-10-31T11:20:01.960Z,59
2022-10-31T11:21:01.723Z,60
2022-10-31T11:22:01.706Z,59
2022-10-31T11:23:01.612Z,59
2022-10-31T11:24:02.618Z,59
2022-10-31T11:25:02.458Z,59
2022-10-31T11:26:02.480Z,62
2022-10-31T11:27:02.309Z,58
2022-10-31T11:28:02.362Z,59
2022-10-31T11:29:02.167Z,58
2022-10-31T11:30:02.211Z,59
2022-10-31T11:31:01.851Z,58
2022-10-31T11:32:01.945Z,59
2022-10-31T11:33:02.443Z,59
2022-10-31T11:34:02.050Z,59
2022-10-31T11:35:02.069Z,60
2022-10-31T11:36:01.923Z,60
2022-10-31T11:37:01.959Z,59
2022-10-31T11:38:02.982Z,59
2022-10-31T11:39:02.449Z,59
2022-10-31T11:40:02.469Z,61
2022-10-31T11:41:02.364Z,58
2022-10-31T11:42:09.102Z,61
2022-10-31T11:43:01.941Z,60
2022-10-31T11:44:01.913Z,60
2022-10-31T11:45:01.893Z,59
2022-10-31T11:46:02.687Z,58
2022-10-31T11:47:02.480Z,58
2022-10-31T11:48:03.538Z,59
2022-10-31T11:49:02.064Z,58
2022-10-31T11:50:02.098Z,57
2022-10-31T11:51:01.956Z,56
2022-10-31T11:52:01.916Z,58
2022-10-31T11:53:01.938Z,57
2022-10-31T11:54:03.650Z,58
2022-10-31T11:55:02.457Z,58
2022-10-31T11:56:02.509Z,58
2022-10-31T11:57:02.377Z,58
2022-10-31T11:58:03.188Z,58
2022-10-31T11:59:01.648Z,58
2022-10-31T12:00:01.664Z,58
2022-10-31T12:01:01.652Z,58
2022-10-31T12:02:02.160Z,59
2022-10-31T12:03:03.234Z,58
2022-10-31T12:04:01.779Z,58
2022-10-31T12:05:01.793Z,58
2022-10-31T12:06:01.581Z,58
2022-10-31T12:07:02.672Z,58
2022-10-31T12:08:05.141Z,58
2022-10-31T12:09:01.953Z,58
2022-10-31T12:10:02.046Z,57
2022-10-31T12:11:01.836Z,57
2022-10-31T12:12:01.888Z,57
2022-10-31T12:13:02.709Z,56
2022-10-31T12:14:04.482Z,56
2022-10-31T12:15:02.348Z,57
2022-10-31T12:16:02.385Z,56
2022-10-31T12:17:02.432Z,56
2022-10-31T12:18:02.261Z,57
2022-10-31T12:19:02.239Z,58
2022-10-31T12:20:02.104Z,57
2022-10-31T12:21:02.079Z,57
2022-10-31T12:22:02.138Z,56
2022-10-31T12:23:02.877Z,57
2022-10-31T12:24:02.458Z,56
2022-10-31T12:25:02.490Z,57
2022-10-31T12:26:02.321Z,55
2022-10-31T12:27:02.384Z,54
2022-10-31T12:28:02.331Z,54
2022-10-31T12:29:02.218Z,54
2022-10-31T12:30:02.180Z,55
2022-10-31T12:31:01.758Z,54
2022-10-31T12:32:01.822Z,54
2022-10-31T12:33:02.281Z,54
2022-10-31T12:34:01.790Z,54
2022-10-31T12:35:01.800Z,54
2022-10-31T12:36:01.643Z,54
2022-10-31T12:37:02.638Z,53
2022-10-31T12:38:03.266Z,54
2022-10-31T12:39:01.591Z,54
2022-10-31T12:40:01.682Z,55
2022-10-31T12:41:02.587Z,53
2022-10-31T12:42:02.416Z,53
2022-10-31T12:43:03.103Z,53
2022-10-31T12:44:02.414Z,54
2022-10-31T12:45:02.475Z,56
2022-10-31T12:46:01.608Z,53
2022-10-31T12:47:01.645Z,54
2022-10-31T12:48:02.566Z,55
2022-10-31T12:49:02.422Z,54
2022-10-31T12:50:02.429Z,53
2022-10-31T12:51:02.265Z,55
2022-10-31T12:52:02.472Z,54
2022-10-31T12:53:03.669Z,54
2022-10-31T12:54:02.313Z,54
2022-10-31T12:55:02.357Z,54
2022-10-31T12:56:02.313Z,54
2022-10-31T12:57:02.125Z,54
2022-10-31T12:58:03.240Z,53
2022-10-31T12:59:01.610Z,53
2022-10-31T13:00:02.671Z,52
2022-10-31T13:01:02.355Z,53
2022-10-31T13:02:02.708Z,53
2022-10-31T13:03:01.739Z,53
2022-10-31T13:04:01.739Z,54
2022-10-31T13:05:01.555Z,53
2022-10-31T13:06:02.611Z,54
2022-10-31T13:07:02.442Z,54
2022-10-31T13:08:03.593Z,53
2022-10-31T13:09:01.743Z,53
2022-10-31T13:10:01.773Z,53
2022-10-31T13:12:02.653Z,53
2022-10-31T13:13:03.288Z,53
2022-10-31T13:14:01.593Z,54
2022-10-31T13:15:02.642Z,53
2022-10-31T13:16:02.112Z,55
2022-10-31T13:17:02.063Z,54
2022-10-31T13:18:01.925Z,53
2022-10-31T13:19:01.945Z,53
2022-10-31T13:20:01.785Z,55
2022-10-31T13:21:01.794Z,54
2022-10-31T13:22:01.604Z,54
2022-10-31T13:23:02.471Z,55
2022-10-31T13:24:01.702Z,53
2022-10-31T13:25:02.111Z,54
2022-10-31T13:26:01.920Z,54
2022-10-31T13:27:01.936Z,54
2022-10-31T13:28:01.707Z,55
2022-10-31T13:29:01.746Z,55
2022-10-31T13:30:01.582Z,56
2022-10-31T13:31:02.497Z,54
2022-10-31T13:32:02.551Z,55
2022-10-31T13:33:03.462Z,55
2022-10-31T13:34:02.017Z,53
2022-10-31T13:35:02.063Z,54
2022-10-31T13:36:01.826Z,54
2022-10-31T13:37:01.817Z,54
2022-10-31T13:38:01.823Z,54
2022-10-31T13:39:01.625Z,54
2022-10-31T13:40:02.653Z,54
2022-10-31T13:41:02.483Z,55
2022-10-31T13:42:02.534Z,55
2022-10-31T13:43:03.251Z,55
2022-10-31T13:44:01.622Z,55
2022-10-31T13:45:01.692Z,56
2022-10-31T13:46:02.347Z,54
2022-10-31T13:47:02.159Z,55
2022-10-31T13:48:02.894Z,55
2022-10-31T13:49:02.576Z,55
2022-10-31T13:50:02.445Z,56
2022-10-31T13:51:02.436Z,56
2022-10-31T13:52:02.316Z,55
2022-10-31T13:53:02.283Z,56
2022-10-31T13:54:02.234Z,57
2022-10-31T13:58:03.267Z,56
2022-10-31T13:59:02.380Z,56
2022-10-31T14:00:02.420Z,56